createdAt,value
2022-09-07T00:10:22.361Z,56.38
2022-09-07T00:40:25.492Z,56.96
2022-09-07T01:10:29.482Z,57.74
2022-09-07T01:40:32.900Z,58.22
2022-09-07T02:10:36.057Z,58.72
2022-09-07T02:40:39.202Z,59.86
2022-09-07T03:10:42.680Z,60.77
2022-09-07T03:40:45.429Z,61.07
2022-09-07T04:10:49.139Z,61.80
2022-09-07T04:40:51.846Z,61.77
2022-09-07T05:10:55.862Z,61.55
2022-09-07T05:40:58.812Z,61.09
2022-09-07T06:11:02.121Z,60.62
2022-09-07T07:11:28.246Z,57.22
2022-09-07T08:11:54.476Z,52.08
2022-09-07T08:41:57.189Z,51.10
2022-09-07T09:12:00.725Z,47.68
2022-09-07T09:42:03.839Z,45.39
2022-09-07T10:12:08.414Z,42.12
2022-09-07T10:42:11.590Z,40.71
2022-09-07T11:12:15.361Z,39.69
2022-09-07T12:12:41.848Z,35.77
2022-09-07T12:42:44.692Z,34.66
2022-09-07T13:43:31.011Z,35.47
2022-09-07T14:13:34.525Z,35.87
2022-09-07T14:43:37.202Z,36.12
2022-09-07T15:13:41.034Z,37.10
2022-09-07T15:43:43.754Z,35.81
2022-09-07T16:13:48.142Z,36.69
2022-09-07T16:43:50.999Z,37.71
2022-09-07T17:13:54.897Z,38.45
2022-09-07T17:43:57.747Z,38.93
2022-09-07T18:14:01.873Z,40.79
2022-09-07T18:44:04.667Z,41.48
2022-09-07T19:14:08.183Z,41.98
2022-09-07T19:44:10.892Z,42.59
2022-09-07T20:14:14.744Z,42.63
2022-09-07T20:44:17.474Z,43.36
2022-09-07T21:14:20.760Z,44.01
2022-09-07T21:44:23.788Z,44.75
2022-09-07T22:14:26.847Z,45.38
2022-09-07T22:44:29.562Z,46.02
2022-09-07T23:14:33.538Z,46.79
2022-09-07T23:44:36.310Z,47.48
